sensor_id;sensor_type;location;lat;lon;timestamp;P1;durP1;ratioP1;P2;durP2;ratioP2
65096;SDS011;51686;46.758;4.356;2024-03-06T00:01:51;10.60;;;4.95;;
65096;SDS011;51686;46.758;4.356;2024-03-06T00:04:38;11.20;;;5.10;;
65096;SDS011;51686;46.758;4.356;2024-03-06T00:07:25;9.93;;;4.47;;
65096;SDS011;51686;46.758;4.356;2024-03-06T00:10:13;10.30;;;4.93;;
65096;SDS011;51686;46.758;4.356;2024-03-06T00:13:00;9.93;;;4.80;;
65096;SDS011;51686;46.758;4.356;2024-03-06T00:15:47;11.30;;;5.68;;
65096;SDS011;51686;46.758;4.356;2024-03-06T00:18:34;11.35;;;5.30;;
65096;SDS011;51686;46.758;4.356;2024-03-06T00:21:21;9.80;;;4.78;;
65096;SDS011;51686;46.758;4.356;2024-03-06T00:24:08;10.02;;;4.68;;
65096;SDS011;51686;46.758;4.356;2024-03-06T00:26:55;9.13;;;4.30;;
65096;SDS011;51686;46.758;4.356;2024-03-06T00:29:42;9.48;;;4.47;;
65096;SDS011;51686;46.758;4.356;2024-03-06T00:32:29;10.00;;;4.50;;
65096;SDS011;51686;46.758;4.356;2024-03-06T00:35:16;10.77;;;5.57;;
65096;SDS011;51686;46.758;4.356;2024-03-06T00:38:03;11.48;;;4.80;;
65096;SDS011;51686;46.758;4.356;2024-03-06T00:40:50;10.18;;;4.35;;
65096;SDS011;51686;46.758;4.356;2024-03-06T00:43:37;10.45;;;4.63;;
65096;SDS011;51686;46.758;4.356;2024-03-06T00:46:24;9.85;;;4.68;;
65096;SDS011;51686;46.758;4.356;2024-03-06T00:49:11;10.35;;;4.55;;
65096;SDS011;51686;46.758;4.356;2024-03-06T00:51:58;11.50;;;5.10;;
65096;SDS011;51686;46.758;4.356;2024-03-06T00:54:44;10.95;;;5.05;;
65096;SDS011;51686;46.758;4.356;2024-03-06T00:57:31;10.27;;;4.80;;
65096;SDS011;51686;46.758;4.356;2024-03-06T01:00:18;9.35;;;4.45;;
65096;SDS011;51686;46.758;4.356;2024-03-06T01:03:06;11.30;;;5.28;;
65096;SDS011;51686;46.758;4.356;2024-03-06T01:05:53;10.77;;;4.65;;
65096;SDS011;51686;46.758;4.356;2024-03-06T01:08:40;9.63;;;4.63;;
65096;SDS011;51686;46.758;4.356;2024-03-06T01:11:27;10.35;;;4.65;;
65096;SDS011;51686;46.758;4.356;2024-03-06T01:14:14;10.52;;;4.93;;
65096;SDS011;51686;46.758;4.356;2024-03-06T01:17:03;10.68;;;4.85;;
65096;SDS011;51686;46.758;4.356;2024-03-06T01:19:50;11.13;;;5.10;;
65096;SDS011;51686;46.758;4.356;2024-03-06T01:22:37;9.82;;;4.63;;
65096;SDS011;51686;46.758;4.356;2024-03-06T01:25:24;9.77;;;5.10;;
65096;SDS011;51686;46.758;4.356;2024-03-06T01:28:11;10.55;;;5.22;;
65096;SDS011;51686;46.758;4.356;2024-03-06T01:30:59;10.95;;;5.47;;
65096;SDS011;51686;46.758;4.356;2024-03-06T01:33:46;10.60;;;4.95;;
65096;SDS011;51686;46.758;4.356;2024-03-06T01:36:33;9.85;;;4.70;;
65096;SDS011;51686;46.758;4.356;2024-03-06T01:39:20;10.60;;;5.13;;
65096;SDS011;51686;46.758;4.356;2024-03-06T01:42:07;10.52;;;5.20;;
65096;SDS011;51686;46.758;4.356;2024-03-06T01:44:54;11.57;;;4.97;;
65096;SDS011;51686;46.758;4.356;2024-03-06T01:47:40;10.45;;;4.35;;
65096;SDS011;51686;46.758;4.356;2024-03-06T01:50:27;10.30;;;4.78;;
65096;SDS011;51686;46.758;4.356;2024-03-06T01:53:14;10.32;;;4.75;;
65096;SDS011;51686;46.758;4.356;2024-03-06T01:56:03;10.52;;;4.93;;
65096;SDS011;51686;46.758;4.356;2024-03-06T01:58:50;9.80;;;4.53;;
65096;SDS011;51686;46.758;4.356;2024-03-06T02:01:39;10.60;;;4.80;;
65096;SDS011;51686;46.758;4.356;2024-03-06T02:04:26;9.85;;;4.65;;
65096;SDS011;51686;46.758;4.356;2024-03-06T02:07:14;9.45;;;4.28;;
65096;SDS011;51686;46.758;4.356;2024-03-06T02:10:02;9.88;;;4.88;;
65096;SDS011;51686;46.758;4.356;2024-03-06T02:12:51;10.65;;;4.85;;
65096;SDS011;51686;46.758;4.356;2024-03-06T02:15:39;10.00;;;5.00;;
65096;SDS011;51686;46.758;4.356;2024-03-06T02:18:26;11.10;;;5.07;;
65096;SDS011;51686;46.758;4.356;2024-03-06T02:21:13;10.75;;;4.85;;
65096;SDS011;51686;46.758;4.356;2024-03-06T02:24:01;11.48;;;5.07;;
65096;SDS011;51686;46.758;4.356;2024-03-06T02:26:48;10.02;;;4.72;;
65096;SDS011;51686;46.758;4.356;2024-03-06T02:29:34;10.63;;;5.38;;
65096;SDS011;51686;46.758;4.356;2024-03-06T02:32:23;10.40;;;5.03;;
65096;SDS011;51686;46.758;4.356;2024-03-06T02:35:10;10.55;;;5.30;;
65096;SDS011;51686;46.758;4.356;2024-03-06T02:37:59;10.45;;;4.60;;
65096;SDS011;51686;46.758;4.356;2024-03-06T02:40:46;10.40;;;5.00;;
65096;SDS011;51686;46.758;4.356;2024-03-06T02:43:34;10.48;;;5.10;;
65096;SDS011;51686;46.758;4.356;2024-03-06T02:46:21;12.00;;;5.13;;
65096;SDS011;51686;46.758;4.356;2024-03-06T02:49:08;10.95;;;5.25;;
65096;SDS011;51686;46.758;4.356;2024-03-06T02:51:55;11.40;;;5.55;;
65096;SDS011;51686;46.758;4.356;2024-03-06T02:54:43;10.95;;;4.97;;
65096;SDS011;51686;46.758;4.356;2024-03-06T02:57:30;10.70;;;4.97;;
65096;SDS011;51686;46.758;4.356;2024-03-06T03:00:17;11.10;;;5.10;;
65096;SDS011;51686;46.758;4.356;2024-03-06T03:03:04;10.65;;;5.10;;
65096;SDS011;51686;46.758;4.356;2024-03-06T03:05:51;11.23;;;4.90;;
65096;SDS011;51686;46.758;4.356;2024-03-06T03:08:38;10.02;;;4.85;;
65096;SDS011;51686;46.758;4.356;2024-03-06T03:11:25;11.00;;;5.40;;
65096;SDS011;51686;46.758;4.356;2024-03-06T03:14:12;12.68;;;5.40;;
65096;SDS011;51686;46.758;4.356;2024-03-06T03:17:00;11.80;;;5.63;;
65096;SDS011;51686;46.758;4.356;2024-03-06T03:19:47;10.65;;;5.20;;
65096;SDS011;51686;46.758;4.356;2024-03-06T03:22:34;11.18;;;5.25;;
65096;SDS011;51686;46.758;4.356;2024-03-06T03:25:21;10.98;;;5.22;;
65096;SDS011;51686;46.758;4.356;2024-03-06T03:28:08;11.43;;;5.50;;
65096;SDS011;51686;46.758;4.356;2024-03-06T03:30:56;11.60;;;5.72;;
65096;SDS011;51686;46.758;4.356;2024-03-06T03:33:43;10.38;;;5.07;;
65096;SDS011;51686;46.758;4.356;2024-03-06T03:36:30;11.02;;;5.13;;
65096;SDS011;51686;46.758;4.356;2024-03-06T03:39:17;11.02;;;5.30;;
65096;SDS011;51686;46.758;4.356;2024-03-06T03:42:04;9.95;;;4.88;;
65096;SDS011;51686;46.758;4.356;2024-03-06T03:44:52;11.20;;;5.20;;
65096;SDS011;51686;46.758;4.356;2024-03-06T03:47:40;11.35;;;5.72;;
65096;SDS011;51686;46.758;4.356;2024-03-06T03:50:29;12.02;;;5.78;;
65096;SDS011;51686;46.758;4.356;2024-03-06T03:53:16;12.15;;;5.75;;
65096;SDS011;51686;46.758;4.356;2024-03-06T03:56:03;11.43;;;5.53;;
65096;SDS011;51686;46.758;4.356;2024-03-06T03:58:50;10.45;;;5.35;;
65096;SDS011;51686;46.758;4.356;2024-03-06T04:01:37;11.50;;;5.63;;
65096;SDS011;51686;46.758;4.356;2024-03-06T04:04:24;12.27;;;6.13;;
65096;SDS011;51686;46.758;4.356;2024-03-06T04:07:11;11.82;;;6.00;;
65096;SDS011;51686;46.758;4.356;2024-03-06T04:09:58;12.32;;;6.13;;
65096;SDS011;51686;46.758;4.356;2024-03-06T04:12:45;12.60;;;5.95;;
65096;SDS011;51686;46.758;4.356;2024-03-06T04:15:32;13.73;;;5.75;;
65096;SDS011;51686;46.758;4.356;2024-03-06T04:18:19;12.90;;;5.93;;
65096;SDS011;51686;46.758;4.356;2024-03-06T04:21:06;10.93;;;5.32;;
65096;SDS011;51686;46.758;4.356;2024-03-06T04:23:54;11.88;;;5.70;;
65096;SDS011;51686;46.758;4.356;2024-03-06T04:26:41;11.98;;;5.78;;
65096;SDS011;51686;46.758;4.356;2024-03-06T04:29:27;12.73;;;5.82;;
65096;SDS011;51686;46.758;4.356;2024-03-06T04:32:14;12.55;;;6.10;;
65096;SDS011;51686;46.758;4.356;2024-03-06T04:35:01;11.68;;;5.75;;
65096;SDS011;51686;46.758;4.356;2024-03-06T04:37:48;12.15;;;5.97;;
65096;SDS011;51686;46.758;4.356;2024-03-06T04:40:35;12.18;;;5.78;;
65096;SDS011;51686;46.758;4.356;2024-03-06T04:43:22;12.38;;;6.07;;
65096;SDS011;51686;46.758;4.356;2024-03-06T04:46:12;12.35;;;6.07;;
65096;SDS011;51686;46.758;4.356;2024-03-06T04:49:00;11.77;;;5.70;;
65096;SDS011;51686;46.758;4.356;2024-03-06T04:51:47;13.07;;;5.85;;
65096;SDS011;51686;46.758;4.356;2024-03-06T04:54:35;15.02;;;7.00;;
65096;SDS011;51686;46.758;4.356;2024-03-06T04:57:21;11.60;;;5.57;;
65096;SDS011;51686;46.758;4.356;2024-03-06T05:00:09;11.73;;;5.82;;
65096;SDS011;51686;46.758;4.356;2024-03-06T05:02:56;12.63;;;6.17;;
65096;SDS011;51686;46.758;4.356;2024-03-06T05:06:01;12.27;;;6.13;;
65096;SDS011;51686;46.758;4.356;2024-03-06T05:09:06;13.57;;;6.25;;
65096;SDS011;51686;46.758;4.356;2024-03-06T05:12:11;11.70;;;6.07;;
65096;SDS011;51686;46.758;4.356;2024-03-06T05:15:15;11.95;;;5.70;;
65096;SDS011;51686;46.758;4.356;2024-03-06T05:18:19;13.23;;;6.40;;
65096;SDS011;51686;46.758;4.356;2024-03-06T05:21:24;13.40;;;6.45;;
65096;SDS011;51686;46.758;4.356;2024-03-06T05:24:28;13.13;;;6.15;;
65096;SDS011;51686;46.758;4.356;2024-03-06T05:27:33;14.20;;;6.72;;
65096;SDS011;51686;46.758;4.356;2024-03-06T05:30:37;13.02;;;5.97;;
65096;SDS011;51686;46.758;4.356;2024-03-06T05:33:42;13.48;;;6.07;;
65096;SDS011;51686;46.758;4.356;2024-03-06T05:36:46;13.30;;;6.20;;
65096;SDS011;51686;46.758;4.356;2024-03-06T05:39:50;13.48;;;7.00;;
65096;SDS011;51686;46.758;4.356;2024-03-06T05:42:55;12.43;;;5.97;;
65096;SDS011;51686;46.758;4.356;2024-03-06T05:45:59;12.80;;;6.57;;
65096;SDS011;51686;46.758;4.356;2024-03-06T05:49:05;13.50;;;7.10;;
65096;SDS011;51686;46.758;4.356;2024-03-06T05:52:09;12.60;;;6.63;;
65096;SDS011;51686;46.758;4.356;2024-03-06T05:55:13;13.27;;;6.40;;
65096;SDS011;51686;46.758;4.356;2024-03-06T05:58:17;12.75;;;6.28;;
65096;SDS011;51686;46.758;4.356;2024-03-06T06:01:08;13.38;;;6.60;;
65096;SDS011;51686;46.758;4.356;2024-03-06T06:03:55;12.52;;;5.97;;
65096;SDS011;51686;46.758;4.356;2024-03-06T06:06:42;13.20;;;6.63;;
65096;SDS011;51686;46.758;4.356;2024-03-06T06:09:29;15.07;;;6.85;;
65096;SDS011;51686;46.758;4.356;2024-03-06T06:12:16;14.82;;;6.63;;
65096;SDS011;51686;46.758;4.356;2024-03-06T06:15:02;12.63;;;6.53;;
65096;SDS011;51686;46.758;4.356;2024-03-06T06:17:50;14.52;;;6.97;;
65096;SDS011;51686;46.758;4.356;2024-03-06T06:20:37;14.18;;;7.03;;
65096;SDS011;51686;46.758;4.356;2024-03-06T06:23:25;13.63;;;6.68;;
65096;SDS011;51686;46.758;4.356;2024-03-06T06:26:13;14.77;;;6.88;;
65096;SDS011;51686;46.758;4.356;2024-03-06T06:29:00;18.80;;;9.23;;
65096;SDS011;51686;46.758;4.356;2024-03-06T06:31:47;19.35;;;9.43;;
65096;SDS011;51686;46.758;4.356;2024-03-06T06:34:34;19.90;;;10.18;;
65096;SDS011;51686;46.758;4.356;2024-03-06T06:37:21;19.52;;;9.82;;
65096;SDS011;51686;46.758;4.356;2024-03-06T06:40:08;19.13;;;9.63;;
65096;SDS011;51686;46.758;4.356;2024-03-06T06:42:56;19.50;;;9.45;;
65096;SDS011;51686;46.758;4.356;2024-03-06T06:45:43;20.77;;;10.27;;
65096;SDS011;51686;46.758;4.356;2024-03-06T06:48:30;19.33;;;10.20;;
65096;SDS011;51686;46.758;4.356;2024-03-06T06:51:17;19.20;;;10.10;;
65096;SDS011;51686;46.758;4.356;2024-03-06T06:54:04;18.52;;;9.18;;
65096;SDS011;51686;46.758;4.356;2024-03-06T06:56:51;20.63;;;9.73;;
65096;SDS011;51686;46.758;4.356;2024-03-06T06:59:38;18.98;;;9.98;;
65096;SDS011;51686;46.758;4.356;2024-03-06T07:02:25;18.88;;;9.98;;
65096;SDS011;51686;46.758;4.356;2024-03-06T07:05:12;19.08;;;8.90;;
65096;SDS011;51686;46.758;4.356;2024-03-06T07:08:00;18.48;;;9.60;;
65096;SDS011;51686;46.758;4.356;2024-03-06T07:10:47;17.60;;;9.10;;
65096;SDS011;51686;46.758;4.356;2024-03-06T07:13:34;18.02;;;9.25;;
65096;SDS011;51686;46.758;4.356;2024-03-06T07:16:21;19.00;;;9.52;;
65096;SDS011;51686;46.758;4.356;2024-03-06T07:19:08;18.00;;;9.60;;
65096;SDS011;51686;46.758;4.356;2024-03-06T07:21:55;18.48;;;8.77;;
65096;SDS011;51686;46.758;4.356;2024-03-06T07:24:42;17.73;;;8.88;;
65096;SDS011;51686;46.758;4.356;2024-03-06T07:27:29;19.65;;;10.38;;
65096;SDS011;51686;46.758;4.356;2024-03-06T07:30:16;17.70;;;9.05;;
65096;SDS011;51686;46.758;4.356;2024-03-06T07:33:03;20.63;;;10.05;;
65096;SDS011;51686;46.758;4.356;2024-03-06T07:35:51;18.42;;;9.65;;
65096;SDS011;51686;46.758;4.356;2024-03-06T07:38:38;17.52;;;9.27;;
65096;SDS011;51686;46.758;4.356;2024-03-06T07:41:25;18.85;;;9.48;;
65096;SDS011;51686;46.758;4.356;2024-03-06T07:44:12;19.23;;;9.75;;
65096;SDS011;51686;46.758;4.356;2024-03-06T07:47:00;19.20;;;9.40;;
65096;SDS011;51686;46.758;4.356;2024-03-06T07:49:47;18.27;;;9.00;;
65096;SDS011;51686;46.758;4.356;2024-03-06T07:52:34;19.17;;;9.07;;
65096;SDS011;51686;46.758;4.356;2024-03-06T07:55:22;15.93;;;8.87;;
65096;SDS011;51686;46.758;4.356;2024-03-06T07:58:09;18.55;;;8.98;;
65096;SDS011;51686;46.758;4.356;2024-03-06T08:00:57;18.45;;;9.80;;
65096;SDS011;51686;46.758;4.356;2024-03-06T08:03:45;19.58;;;10.07;;
65096;SDS011;51686;46.758;4.356;2024-03-06T08:06:32;19.42;;;9.45;;
65096;SDS011;51686;46.758;4.356;2024-03-06T08:09:23;17.05;;;8.75;;
65096;SDS011;51686;46.758;4.356;2024-03-06T08:12:12;17.83;;;9.13;;
65096;SDS011;51686;46.758;4.356;2024-03-06T08:14:59;17.85;;;9.13;;
65096;SDS011;51686;46.758;4.356;2024-03-06T08:17:47;19.98;;;10.27;;
65096;SDS011;51686;46.758;4.356;2024-03-06T08:20:34;18.63;;;9.48;;
65096;SDS011;51686;46.758;4.356;2024-03-06T08:23:21;18.90;;;9.75;;
65096;SDS011;51686;46.758;4.356;2024-03-06T08:26:08;19.20;;;9.30;;
65096;SDS011;51686;46.758;4.356;2024-03-06T08:28:55;17.50;;;9.45;;
65096;SDS011;51686;46.758;4.356;2024-03-06T08:31:42;17.33;;;8.70;;
65096;SDS011;51686;46.758;4.356;2024-03-06T08:34:29;18.95;;;9.38;;
65096;SDS011;51686;46.758;4.356;2024-03-06T08:37:18;19.77;;;9.98;;
65096;SDS011;51686;46.758;4.356;2024-03-06T08:40:09;18.40;;;9.43;;
65096;SDS011;51686;46.758;4.356;2024-03-06T08:43:04;20.15;;;9.65;;
65096;SDS011;51686;46.758;4.356;2024-03-06T08:45:50;20.77;;;10.20;;
65096;SDS011;51686;46.758;4.356;2024-03-06T08:48:38;18.20;;;9.65;;
65096;SDS011;51686;46.758;4.356;2024-03-06T08:51:26;20.33;;;10.45;;
65096;SDS011;51686;46.758;4.356;2024-03-06T08:54:13;21.35;;;10.90;;
65096;SDS011;51686;46.758;4.356;2024-03-06T08:57:00;19.33;;;10.05;;
65096;SDS011;51686;46.758;4.356;2024-03-06T08:59:49;19.60;;;10.48;;
65096;SDS011;51686;46.758;4.356;2024-03-06T09:02:39;18.42;;;9.45;;
65096;SDS011;51686;46.758;4.356;2024-03-06T09:05:28;17.42;;;9.20;;
65096;SDS011;51686;46.758;4.356;2024-03-06T09:08:15;19.67;;;9.70;;
65096;SDS011;51686;46.758;4.356;2024-03-06T09:11:02;19.52;;;10.18;;
65096;SDS011;51686;46.758;4.356;2024-03-06T09:13:49;21.08;;;10.23;;
65096;SDS011;51686;46.758;4.356;2024-03-06T09:16:36;18.08;;;9.32;;
65096;SDS011;51686;46.758;4.356;2024-03-06T09:19:23;19.02;;;9.85;;
65096;SDS011;51686;46.758;4.356;2024-03-06T09:22:10;19.55;;;10.07;;
65096;SDS011;51686;46.758;4.356;2024-03-06T09:24:56;20.27;;;10.18;;
65096;SDS011;51686;46.758;4.356;2024-03-06T09:27:43;18.75;;;9.98;;
65096;SDS011;51686;46.758;4.356;2024-03-06T09:30:30;21.10;;;10.55;;
65096;SDS011;51686;46.758;4.356;2024-03-06T09:33:17;18.45;;;10.02;;
65096;SDS011;51686;46.758;4.356;2024-03-06T09:36:04;18.95;;;9.95;;
65096;SDS011;51686;46.758;4.356;2024-03-06T09:38:51;16.63;;;9.25;;
65096;SDS011;51686;46.758;4.356;2024-03-06T09:41:39;17.88;;;9.32;;
65096;SDS011;51686;46.758;4.356;2024-03-06T09:44:27;19.98;;;10.07;;
65096;SDS011;51686;46.758;4.356;2024-03-06T09:47:14;19.60;;;9.60;;
65096;SDS011;51686;46.758;4.356;2024-03-06T09:50:09;19.38;;;10.20;;
65096;SDS011;51686;46.758;4.356;2024-03-06T09:52:57;19.40;;;9.82;;
65096;SDS011;51686;46.758;4.356;2024-03-06T09:55:44;18.98;;;9.65;;
65096;SDS011;51686;46.758;4.356;2024-03-06T09:58:33;19.17;;;9.75;;
65096;SDS011;51686;46.758;4.356;2024-03-06T10:01:19;16.77;;;8.85;;
65096;SDS011;51686;46.758;4.356;2024-03-06T10:04:18;18.00;;;9.13;;
65096;SDS011;51686;46.758;4.356;2024-03-06T10:07:05;18.05;;;9.45;;
65096;SDS011;51686;46.758;4.356;2024-03-06T10:09:54;19.10;;;10.07;;
65096;SDS011;51686;46.758;4.356;2024-03-06T10:12:42;17.90;;;9.25;;
65096;SDS011;51686;46.758;4.356;2024-03-06T10:15:29;19.70;;;9.73;;
65096;SDS011;51686;46.758;4.356;2024-03-06T10:18:16;19.20;;;10.02;;
65096;SDS011;51686;46.758;4.356;2024-03-06T10:21:06;18.02;;;9.48;;
65096;SDS011;51686;46.758;4.356;2024-03-06T10:23:57;19.45;;;9.88;;
65096;SDS011;51686;46.758;4.356;2024-03-06T10:26:44;19.85;;;9.93;;
65096;SDS011;51686;46.758;4.356;2024-03-06T10:29:31;18.27;;;9.68;;
65096;SDS011;51686;46.758;4.356;2024-03-06T10:32:18;19.02;;;10.23;;
65096;SDS011;51686;46.758;4.356;2024-03-06T10:35:06;19.65;;;9.63;;
65096;SDS011;51686;46.758;4.356;2024-03-06T10:37:54;18.00;;;9.73;;
65096;SDS011;51686;46.758;4.356;2024-03-06T10:40:41;19.42;;;10.65;;
65096;SDS011;51686;46.758;4.356;2024-03-06T10:43:30;18.75;;;10.27;;
65096;SDS011;51686;46.758;4.356;2024-03-06T10:46:18;19.63;;;9.77;;
65096;SDS011;51686;46.758;4.356;2024-03-06T10:49:06;19.35;;;10.48;;
65096;SDS011;51686;46.758;4.356;2024-03-06T10:51:57;19.02;;;10.25;;
65096;SDS011;51686;46.758;4.356;2024-03-06T10:54:47;20.42;;;10.63;;
65096;SDS011;51686;46.758;4.356;2024-03-06T10:57:34;19.65;;;10.98;;
65096;SDS011;51686;46.758;4.356;2024-03-06T11:00:23;19.70;;;10.38;;
65096;SDS011;51686;46.758;4.356;2024-03-06T11:03:10;20.65;;;10.57;;
65096;SDS011;51686;46.758;4.356;2024-03-06T11:06:00;19.63;;;10.82;;
65096;SDS011;51686;46.758;4.356;2024-03-06T11:08:50;19.77;;;10.82;;
65096;SDS011;51686;46.758;4.356;2024-03-06T11:11:47;19.40;;;10.30;;
65096;SDS011;51686;46.758;4.356;2024-03-06T11:14:38;21.05;;;10.40;;
65096;SDS011;51686;46.758;4.356;2024-03-06T11:17:26;19.55;;;10.65;;
65096;SDS011;51686;46.758;4.356;2024-03-06T11:20:18;20.60;;;9.65;;
65096;SDS011;51686;46.758;4.356;2024-03-06T11:23:07;19.27;;;10.25;;
65096;SDS011;51686;46.758;4.356;2024-03-06T11:26:01;17.33;;;9.77;;
65096;SDS011;51686;46.758;4.356;2024-03-06T11:28:51;18.25;;;10.55;;
65096;SDS011;51686;46.758;4.356;2024-03-06T11:31:37;18.35;;;9.63;;
65096;SDS011;51686;46.758;4.356;2024-03-06T11:34:25;18.60;;;9.65;;
65096;SDS011;51686;46.758;4.356;2024-03-06T11:37:11;19.33;;;9.82;;
65096;SDS011;51686;46.758;4.356;2024-03-06T11:39:59;18.38;;;10.00;;
65096;SDS011;51686;46.758;4.356;2024-03-06T11:42:47;17.40;;;9.65;;
65096;SDS011;51686;46.758;4.356;2024-03-06T11:45:43;19.42;;;10.43;;
65096;SDS011;51686;46.758;4.356;2024-03-06T11:48:30;19.20;;;10.35;;
65096;SDS011;51686;46.758;4.356;2024-03-06T11:51:18;16.45;;;9.63;;
65096;SDS011;51686;46.758;4.356;2024-03-06T11:54:05;17.95;;;10.00;;
65096;SDS011;51686;46.758;4.356;2024-03-06T11:56:53;18.17;;;10.02;;
65096;SDS011;51686;46.758;4.356;2024-03-06T11:59:41;20.08;;;10.65;;
65096;SDS011;51686;46.758;4.356;2024-03-06T12:02:28;18.45;;;9.98;;
65096;SDS011;51686;46.758;4.356;2024-03-06T12:05:15;17.27;;;8.65;;
65096;SDS011;51686;46.758;4.356;2024-03-06T12:08:02;14.95;;;8.27;;
65096;SDS011;51686;46.758;4.356;2024-03-06T12:10:50;16.33;;;8.85;;
65096;SDS011;51686;46.758;4.356;2024-03-06T12:13:37;17.40;;;9.05;;
65096;SDS011;51686;46.758;4.356;2024-03-06T12:16:24;15.43;;;8.55;;
65096;SDS011;51686;46.758;4.356;2024-03-06T12:19:10;17.15;;;9.25;;
65096;SDS011;51686;46.758;4.356;2024-03-06T12:22:00;17.23;;;9.07;;
65096;SDS011;51686;46.758;4.356;2024-03-06T12:24:58;16.65;;;8.52;;
65096;SDS011;51686;46.758;4.356;2024-03-06T12:27:46;16.15;;;8.40;;
65096;SDS011;51686;46.758;4.356;2024-03-06T12:30:38;15.65;;;8.45;;
65096;SDS011;51686;46.758;4.356;2024-03-06T12:33:30;18.85;;;9.77;;
65096;SDS011;51686;46.758;4.356;2024-03-06T12:36:24;17.38;;;9.05;;
65096;SDS011;51686;46.758;4.356;2024-03-06T12:39:14;17.50;;;8.82;;
65096;SDS011;51686;46.758;4.356;2024-03-06T12:42:04;16.77;;;8.77;;
65096;SDS011;51686;46.758;4.356;2024-03-06T12:44:52;17.92;;;8.77;;
65096;SDS011;51686;46.758;4.356;2024-03-06T12:47:42;17.08;;;8.50;;
65096;SDS011;51686;46.758;4.356;2024-03-06T12:50:31;16.88;;;8.80;;
65096;SDS011;51686;46.758;4.356;2024-03-06T12:53:18;15.40;;;8.50;;
65096;SDS011;51686;46.758;4.356;2024-03-06T12:56:05;16.08;;;8.77;;
65096;SDS011;51686;46.758;4.356;2024-03-06T12:58:52;16.70;;;8.50;;
65096;SDS011;51686;46.758;4.356;2024-03-06T13:01:39;14.43;;;8.00;;
65096;SDS011;51686;46.758;4.356;2024-03-06T13:04:26;15.60;;;8.15;;
65096;SDS011;51686;46.758;4.356;2024-03-06T13:07:14;15.95;;;8.55;;
65096;SDS011;51686;46.758;4.356;2024-03-06T13:10:01;15.02;;;8.18;;
65096;SDS011;51686;46.758;4.356;2024-03-06T13:12:51;16.35;;;8.35;;
65096;SDS011;51686;46.758;4.356;2024-03-06T13:15:41;16.88;;;8.18;;
65096;SDS011;51686;46.758;4.356;2024-03-06T13:18:29;15.73;;;8.18;;
65096;SDS011;51686;46.758;4.356;2024-03-06T13:21:15;15.43;;;7.95;;
65096;SDS011;51686;46.758;4.356;2024-03-06T13:24:02;14.45;;;7.32;;
65096;SDS011;51686;46.758;4.356;2024-03-06T13:26:50;15.65;;;8.25;;
65096;SDS011;51686;46.758;4.356;2024-03-06T13:29:36;15.52;;;8.50;;
65096;SDS011;51686;46.758;4.356;2024-03-06T13:32:24;14.13;;;7.18;;
65096;SDS011;51686;46.758;4.356;2024-03-06T13:35:11;14.70;;;7.63;;
65096;SDS011;51686;46.758;4.356;2024-03-06T13:38:00;15.93;;;7.38;;
65096;SDS011;51686;46.758;4.356;2024-03-06T13:40:46;14.10;;;7.80;;
65096;SDS011;51686;46.758;4.356;2024-03-06T13:43:33;13.75;;;6.97;;
65096;SDS011;51686;46.758;4.356;2024-03-06T13:46:20;14.13;;;7.45;;
65096;SDS011;51686;46.758;4.356;2024-03-06T13:49:07;15.20;;;8.20;;
65096;SDS011;51686;46.758;4.356;2024-03-06T13:51:55;14.77;;;7.40;;
65096;SDS011;51686;46.758;4.356;2024-03-06T13:54:42;15.38;;;7.90;;
65096;SDS011;51686;46.758;4.356;2024-03-06T13:57:29;14.15;;;7.10;;
65096;SDS011;51686;46.758;4.356;2024-03-06T14:00:16;14.95;;;8.15;;
65096;SDS011;51686;46.758;4.356;2024-03-06T14:03:04;14.25;;;7.40;;
65096;SDS011;51686;46.758;4.356;2024-03-06T14:05:51;15.60;;;7.60;;
65096;SDS011;51686;46.758;4.356;2024-03-06T14:08:38;15.32;;;7.85;;
65096;SDS011;51686;46.758;4.356;2024-03-06T14:11:28;14.52;;;7.90;;
65096;SDS011;51686;46.758;4.356;2024-03-06T14:14:18;16.30;;;8.23;;
65096;SDS011;51686;46.758;4.356;2024-03-06T14:17:05;14.45;;;7.80;;
65096;SDS011;51686;46.758;4.356;2024-03-06T14:19:52;17.02;;;8.25;;
65096;SDS011;51686;46.758;4.356;2024-03-06T14:22:39;14.23;;;8.00;;
65096;SDS011;51686;46.758;4.356;2024-03-06T14:25:26;14.77;;;8.38;;
65096;SDS011;51686;46.758;4.356;2024-03-06T14:28:13;15.13;;;8.23;;
65096;SDS011;51686;46.758;4.356;2024-03-06T14:31:00;16.33;;;9.05;;
65096;SDS011;51686;46.758;4.356;2024-03-06T14:33:47;16.85;;;8.27;;
65096;SDS011;51686;46.758;4.356;2024-03-06T14:36:35;16.08;;;8.45;;
65096;SDS011;51686;46.758;4.356;2024-03-06T14:39:22;16.42;;;8.90;;
65096;SDS011;51686;46.758;4.356;2024-03-06T14:42:11;15.30;;;8.27;;
65096;SDS011;51686;46.758;4.356;2024-03-06T14:44:58;15.82;;;8.80;;
65096;SDS011;51686;46.758;4.356;2024-03-06T14:47:45;16.30;;;8.77;;
65096;SDS011;51686;46.758;4.356;2024-03-06T14:50:32;18.02;;;9.52;;
65096;SDS011;51686;46.758;4.356;2024-03-06T14:53:19;15.07;;;8.57;;
65096;SDS011;51686;46.758;4.356;2024-03-06T14:56:07;15.85;;;8.82;;
65096;SDS011;51686;46.758;4.356;2024-03-06T14:58:54;17.35;;;9.38;;
65096;SDS011;51686;46.758;4.356;2024-03-06T15:01:41;17.80;;;10.05;;
65096;SDS011;51686;46.758;4.356;2024-03-06T15:04:28;17.17;;;9.10;;
65096;SDS011;51686;46.758;4.356;2024-03-06T15:07:15;17.25;;;8.90;;
65096;SDS011;51686;46.758;4.356;2024-03-06T15:10:02;16.25;;;9.07;;
65096;SDS011;51686;46.758;4.356;2024-03-06T15:12:49;16.35;;;8.85;;
65096;SDS011;51686;46.758;4.356;2024-03-06T15:15:37;16.38;;;9.43;;
65096;SDS011;51686;46.758;4.356;2024-03-06T15:18:24;17.70;;;9.18;;
65096;SDS011;51686;46.758;4.356;2024-03-06T15:21:11;16.33;;;9.23;;
65096;SDS011;51686;46.758;4.356;2024-03-06T15:23:58;16.50;;;9.38;;
65096;SDS011;51686;46.758;4.356;2024-03-06T15:26:49;16.08;;;9.02;;
65096;SDS011;51686;46.758;4.356;2024-03-06T15:29:36;17.20;;;9.20;;
65096;SDS011;51686;46.758;4.356;2024-03-06T15:32:24;15.45;;;8.75;;
65096;SDS011;51686;46.758;4.356;2024-03-06T15:35:10;16.27;;;9.02;;
65096;SDS011;51686;46.758;4.356;2024-03-06T15:37:58;16.58;;;9.02;;
65096;SDS011;51686;46.758;4.356;2024-03-06T15:40:45;17.25;;;9.00;;
65096;SDS011;51686;46.758;4.356;2024-03-06T15:43:37;16.77;;;8.93;;
65096;SDS011;51686;46.758;4.356;2024-03-06T15:46:24;17.48;;;9.27;;
65096;SDS011;51686;46.758;4.356;2024-03-06T15:49:19;19.70;;;9.43;;
65096;SDS011;51686;46.758;4.356;2024-03-06T15:52:07;16.92;;;9.27;;
65096;SDS011;51686;46.758;4.356;2024-03-06T15:54:54;16.70;;;9.32;;
65096;SDS011;51686;46.758;4.356;2024-03-06T15:57:43;15.80;;;9.45;;
65096;SDS011;51686;46.758;4.356;2024-03-06T16:00:30;16.33;;;8.98;;
65096;SDS011;51686;46.758;4.356;2024-03-06T16:03:17;16.00;;;9.10;;
65096;SDS011;51686;46.758;4.356;2024-03-06T16:06:04;16.38;;;9.05;;
65096;SDS011;51686;46.758;4.356;2024-03-06T16:09:03;16.75;;;9.23;;
65096;SDS011;51686;46.758;4.356;2024-03-06T16:11:50;16.65;;;9.35;;
65096;SDS011;51686;46.758;4.356;2024-03-06T16:14:38;18.48;;;10.60;;
65096;SDS011;51686;46.758;4.356;2024-03-06T16:17:25;18.70;;;10.07;;
65096;SDS011;51686;46.758;4.356;2024-03-06T16:20:12;18.23;;;10.02;;
65096;SDS011;51686;46.758;4.356;2024-03-06T16:22:59;17.40;;;10.18;;
65096;SDS011;51686;46.758;4.356;2024-03-06T16:25:46;18.38;;;10.00;;
65096;SDS011;51686;46.758;4.356;2024-03-06T16:28:33;17.75;;;9.90;;
65096;SDS011;51686;46.758;4.356;2024-03-06T16:31:20;16.42;;;9.48;;
65096;SDS011;51686;46.758;4.356;2024-03-06T16:34:07;17.50;;;9.57;;
65096;SDS011;51686;46.758;4.356;2024-03-06T16:36:54;18.08;;;9.75;;
65096;SDS011;51686;46.758;4.356;2024-03-06T16:39:41;16.50;;;9.40;;